createdAt,value
2022-08-03T00:00:58.704Z,54.30
2022-08-03T00:01:58.721Z,52.14
2022-08-03T00:02:58.776Z,50.50
2022-08-03T00:03:58.740Z,50.61
2022-08-03T00:04:58.710Z,49.84
2022-08-03T00:06:04.452Z,49.82
2022-08-03T00:06:59.719Z,52.85
2022-08-03T00:07:58.653Z,53.28
2022-08-03T00:08:58.710Z,49.39
2022-08-03T00:09:58.950Z,50.83
2022-08-03T00:10:58.677Z,47.83
2022-08-03T00:11:58.647Z,48.35
2022-08-03T00:12:58.711Z,53.48
2022-08-03T00:13:58.622Z,53.61
2022-08-03T00:14:58.654Z,48.84
2022-08-03T00:15:58.605Z,50.99
2022-08-03T00:16:58.591Z,52.85
2022-08-03T00:17:58.608Z,48.00
2022-08-03T00:18:58.499Z,48.24
2022-08-03T00:19:58.527Z,53.52
2022-08-03T00:20:58.543Z,55.89
2022-08-03T00:21:58.510Z,51.78
2022-08-03T00:22:58.477Z,54.03
2022-08-03T00:23:58.473Z,54.78
2022-08-03T00:24:58.476Z,54.76
2022-08-03T00:25:58.513Z,48.54
2022-08-03T00:26:58.444Z,48.73
2022-08-03T00:27:58.458Z,51.74
2022-08-03T00:28:58.416Z,50.39
2022-08-03T00:30:00.403Z,53.05
2022-08-03T00:30:58.447Z,55.62
2022-08-03T00:31:59.350Z,52.07
2022-08-03T00:32:58.520Z,51.18
2022-08-03T00:33:59.674Z,53.58
2022-08-03T00:34:59.174Z,50.60
2022-08-03T00:35:58.588Z,52.13
2022-08-03T00:36:58.535Z,54.36
2022-08-03T00:37:58.474Z,53.45
2022-08-03T00:38:58.471Z,56.10
2022-08-03T00:39:59.908Z,54.41
2022-08-03T00:40:58.458Z,51.54
2022-08-03T00:41:58.332Z,52.57
2022-08-03T00:42:58.488Z,51.65
2022-08-03T00:43:58.445Z,55.93
2022-08-03T00:44:59.421Z,49.67
2022-08-03T00:45:58.428Z,49.97
2022-08-03T00:46:58.421Z,50.85
2022-08-03T00:47:58.471Z,50.65
2022-08-03T00:48:58.439Z,49.73
2022-08-03T00:49:58.372Z,51.00
2022-08-03T00:50:58.413Z,53.24
2022-08-03T00:51:58.364Z,49.90
2022-08-03T00:52:58.367Z,53.07
2022-08-03T00:53:58.442Z,53.38
2022-08-03T00:54:58.388Z,52.98
2022-08-03T00:55:58.321Z,50.88
2022-08-03T00:56:59.461Z,53.79
2022-08-03T00:57:58.308Z,54.53
2022-08-03T00:58:58.370Z,50.07
2022-08-03T00:59:58.295Z,50.89
2022-08-03T01:00:58.352Z,54.64
2022-08-03T01:01:58.298Z,52.58
2022-08-03T01:02:58.309Z,47.77
2022-08-03T01:03:58.316Z,52.17
2022-08-03T01:04:58.357Z,50.14
2022-08-03T01:05:58.316Z,49.35
2022-08-03T01:06:58.263Z,48.59
2022-08-03T01:07:58.241Z,49.29
2022-08-03T01:08:58.256Z,47.12
2022-08-03T01:09:58.433Z,47.07
2022-08-03T01:10:58.245Z,50.71
2022-08-03T01:12:01.158Z,52.49
2022-08-03T01:12:58.194Z,51.81
2022-08-03T01:14:04.267Z,49.32
2022-08-03T01:14:59.260Z,48.11
2022-08-03T01:15:58.233Z,53.36
2022-08-03T01:16:58.875Z,53.10
2022-08-03T01:17:58.247Z,49.57
2022-08-03T01:18:58.061Z,51.37
2022-08-03T01:19:58.141Z,51.12
2022-08-03T01:20:58.111Z,47.93
2022-08-03T01:21:58.064Z,47.39
2022-08-03T01:22:58.060Z,47.31
2022-08-03T01:23:58.065Z,49.57
2022-08-03T01:24:58.014Z,51.22
2022-08-03T01:25:58.058Z,52.33
2022-08-03T01:26:58.031Z,52.23
2022-08-03T01:27:58.012Z,51.71
2022-08-03T01:28:58.112Z,52.73
2022-08-03T01:29:58.102Z,51.68
2022-08-03T01:30:58.113Z,48.53
2022-08-03T01:32:54.510Z,47.99
2022-08-03T01:33:01.796Z,51.61
2022-08-03T01:33:57.959Z,49.73
2022-08-03T01:34:58.056Z,49.62
2022-08-03T01:35:58.050Z,50.63
2022-08-03T01:36:58.096Z,55.90
2022-08-03T01:37:58.074Z,50.56
2022-08-03T01:38:58.114Z,52.20
2022-08-03T01:39:58.015Z,51.45
2022-08-03T01:40:58.066Z,50.03
2022-08-03T01:41:57.956Z,49.51
2022-08-03T01:42:58.065Z,52.92
2022-08-03T01:44:27.324Z,49.15
2022-08-03T01:44:58.900Z,52.93
2022-08-03T01:45:57.992Z,51.35
2022-08-03T01:46:58.030Z,51.46
2022-08-03T01:47:57.937Z,55.61
2022-08-03T01:48:58.016Z,51.14
2022-08-03T01:49:57.982Z,50.15
2022-08-03T01:50:57.928Z,51.07
2022-08-03T01:52:03.998Z,50.02
2022-08-03T01:52:59.023Z,52.95
2022-08-03T01:53:57.913Z,50.48
2022-08-03T01:54:57.907Z,48.46
2022-08-03T01:55:57.889Z,50.67
2022-08-03T01:56:57.888Z,50.34
2022-08-03T01:58:05.282Z,49.92
2022-08-03T01:58:58.891Z,52.54
2022-08-03T01:59:57.945Z,51.76
2022-08-03T02:00:57.895Z,50.16
2022-08-03T02:02:19.573Z,53.86
2022-08-03T02:02:58.802Z,54.51
2022-08-03T02:04:00.150Z,51.13
2022-08-03T02:04:57.840Z,51.73
2022-08-03T02:06:18.147Z,51.07
2022-08-03T02:07:03.107Z,51.84
2022-08-03T02:07:57.767Z,52.30
2022-08-03T02:08:58.802Z,54.38
2022-08-03T02:09:57.780Z,52.11
2022-08-03T02:10:57.819Z,53.93
2022-08-03T02:11:57.760Z,53.50
2022-08-03T02:12:57.736Z,51.88
2022-08-03T02:13:57.824Z,52.11
2022-08-03T02:14:57.773Z,54.29
2022-08-03T02:15:57.756Z,52.85
2022-08-03T02:16:57.680Z,53.91
2022-08-03T02:17:57.661Z,53.02
2022-08-03T02:18:57.609Z,52.50
2022-08-03T02:19:57.663Z,51.94
2022-08-03T02:20:57.625Z,52.38
2022-08-03T02:22:01.353Z,51.49
2022-08-03T02:22:58.615Z,51.63
2022-08-03T02:23:57.600Z,52.05
2022-08-03T02:24:57.591Z,55.77
2022-08-03T02:25:57.554Z,54.61
2022-08-03T02:26:57.600Z,53.74
2022-08-03T02:27:57.609Z,53.62
2022-08-03T02:28:57.569Z,54.96
2022-08-03T02:29:57.550Z,54.04
2022-08-03T02:30:57.702Z,55.04
2022-08-03T02:31:57.663Z,57.76
2022-08-03T02:32:57.612Z,58.08
2022-08-03T02:33:57.634Z,58.74
2022-08-03T02:34:57.604Z,53.15
2022-08-03T02:35:57.627Z,54.70
2022-08-03T02:36:57.583Z,58.42
2022-08-03T02:37:57.614Z,54.60
2022-08-03T02:38:57.582Z,53.79
2022-08-03T02:39:57.585Z,55.60
2022-08-03T02:40:57.592Z,54.53
2022-08-03T02:41:57.515Z,52.38
2022-08-03T02:42:57.568Z,52.42
2022-08-03T02:44:06.223Z,52.08
2022-08-03T02:44:58.450Z,55.44
2022-08-03T02:45:57.573Z,53.14
2022-08-03T02:46:57.550Z,55.13
2022-08-03T02:47:57.593Z,54.56
2022-08-03T02:48:57.556Z,52.70
2022-08-03T02:49:57.515Z,53.76
2022-08-03T02:50:57.489Z,55.31
2022-08-03T02:51:57.469Z,53.48
2022-08-03T02:52:57.509Z,53.79
2022-08-03T02:53:57.460Z,54.24
2022-08-03T02:54:57.484Z,55.13
2022-08-03T02:55:57.466Z,55.73
2022-08-03T02:56:57.439Z,52.99
2022-08-03T02:57:57.465Z,52.60
2022-08-03T02:58:57.457Z,56.02
2022-08-03T02:59:57.404Z,54.03
2022-08-03T03:00:57.503Z,55.23
2022-08-03T03:01:57.419Z,54.45
2022-08-03T03:02:57.411Z,55.84
2022-08-03T03:03:57.423Z,60.64
2022-08-03T03:05:52.011Z,55.00
2022-08-03T03:05:59.707Z,57.49
2022-08-03T03:06:58.378Z,58.81
2022-08-03T03:07:57.287Z,56.39
2022-08-03T03:08:59.787Z,58.26
2022-08-03T03:09:58.271Z,56.47
2022-08-03T03:10:57.252Z,57.41
2022-08-03T03:11:57.269Z,56.06
2022-08-03T03:12:57.238Z,54.15
2022-08-03T03:13:57.257Z,55.73
2022-08-03T03:14:57.669Z,56.49
2022-08-03T03:15:57.231Z,56.07
2022-08-03T03:16:57.848Z,54.53
2022-08-03T03:17:57.345Z,57.67
2022-08-03T03:18:57.287Z,58.75
2022-08-03T03:19:57.333Z,55.78
2022-08-03T03:20:57.260Z,57.24
2022-08-03T03:21:57.291Z,58.82
2022-08-03T03:22:57.268Z,58.04
2022-08-03T03:23:57.239Z,58.24
2022-08-03T03:24:57.223Z,57.84
2022-08-03T03:25:57.313Z,57.36
2022-08-03T03:26:57.277Z,59.35
2022-08-03T03:27:57.724Z,59.04
2022-08-03T03:28:57.206Z,57.01
2022-08-03T03:29:57.233Z,55.49
2022-08-03T03:30:57.223Z,58.16
2022-08-03T03:31:57.237Z,57.89
2022-08-03T03:32:57.219Z,55.61
2022-08-03T03:33:57.179Z,55.80
2022-08-03T03:34:57.154Z,55.18
2022-08-03T03:35:57.177Z,56.08
2022-08-03T03:36:57.175Z,57.38
2022-08-03T03:37:57.140Z,56.89
2022-08-03T03:38:57.138Z,56.23
2022-08-03T03:39:57.172Z,57.75
2022-08-03T03:40:57.119Z,58.27
2022-08-03T03:41:57.146Z,60.35
2022-08-03T03:42:57.090Z,58.47
2022-08-03T03:43:58.081Z,57.12
2022-08-03T03:44:57.117Z,57.88
2022-08-03T03:45:57.094Z,57.03
2022-08-03T03:46:57.092Z,58.31
2022-08-03T03:47:57.148Z,60.11
2022-08-03T03:48:57.091Z,59.55
2022-08-03T03:49:56.964Z,58.74
2022-08-03T03:50:56.949Z,60.54
2022-08-03T03:51:56.982Z,57.25
2022-08-03T03:52:57.034Z,58.92
2022-08-03T03:53:56.912Z,58.77
2022-08-03T03:55:00.784Z,59.95
2022-08-03T03:56:02.009Z,59.45
2022-08-03T03:56:56.923Z,59.97
2022-08-03T03:57:56.924Z,60.41
2022-08-03T03:58:56.941Z,60.17
2022-08-03T03:59:56.876Z,57.66
2022-08-03T04:00:56.958Z,57.40
2022-08-03T04:01:59.185Z,59.70
2022-08-03T04:02:56.854Z,59.68
2022-08-03T04:03:57.042Z,60.53
2022-08-03T04:04:56.975Z,58.76
2022-08-03T04:05:56.957Z,58.45
2022-08-03T04:06:56.959Z,57.04
2022-08-03T04:07:56.912Z,59.23
2022-08-03T04:08:56.938Z,59.35
2022-08-03T04:09:56.966Z,58.06
2022-08-03T04:10:56.942Z,58.61
2022-08-03T04:11:56.946Z,60.48
2022-08-03T04:12:56.880Z,60.25
2022-08-03T04:13:56.914Z,60.07
2022-08-03T04:14:57.984Z,59.57
2022-08-03T04:15:56.951Z,60.00
2022-08-03T04:16:56.889Z,58.65
2022-08-03T04:17:56.853Z,59.69
2022-08-03T04:18:56.818Z,60.89
2022-08-03T04:19:56.831Z,60.51
2022-08-03T04:20:56.874Z,60.72
2022-08-03T04:21:56.967Z,61.33
2022-08-03T04:22:56.800Z,60.36
2022-08-03T04:23:56.784Z,59.87
2022-08-03T04:24:56.791Z,59.78
2022-08-03T04:25:56.824Z,59.67
2022-08-03T04:26:56.794Z,60.67
2022-08-03T04:28:29.383Z,60.01
2022-08-03T04:28:57.768Z,60.41
2022-08-03T04:29:56.791Z,58.38
2022-08-03T04:30:56.755Z,60.49
2022-08-03T04:31:56.825Z,59.49
2022-08-03T04:32:56.767Z,60.11
2022-08-03T04:33:56.725Z,59.82
2022-08-03T04:34:56.788Z,60.41
2022-08-03T04:36:01.033Z,60.26
2022-08-03T04:36:57.783Z,59.39
2022-08-03T04:37:56.680Z,58.74
2022-08-03T04:38:56.710Z,59.43
2022-08-03T04:39:56.946Z,60.92
2022-08-03T04:40:56.700Z,58.98
2022-08-03T04:42:06.981Z,59.32
2022-08-03T04:42:57.693Z,57.58
2022-08-03T04:43:56.625Z,58.53
2022-08-03T04:45:01.012Z,59.02
2022-08-03T04:45:57.630Z,58.14
2022-08-03T04:46:56.612Z,59.02
2022-08-03T04:47:56.666Z,58.00
2022-08-03T04:48:56.653Z,58.75
2022-08-03T04:49:56.613Z,57.67
2022-08-03T04:50:56.621Z,57.20
2022-08-03T04:51:56.588Z,57.19
2022-08-03T04:52:56.568Z,57.42
2022-08-03T04:53:56.652Z,59.51
2022-08-03T04:54:56.486Z,58.00
2022-08-03T04:55:56.498Z,57.48
2022-08-03T04:56:56.493Z,56.91
2022-08-03T04:57:56.504Z,57.17
2022-08-03T04:58:56.475Z,55.99
2022-08-03T05:00:02.172Z,56.47
2022-08-03T05:00:58.483Z,58.39
2022-08-03T05:01:56.523Z,59.48
2022-08-03T05:02:56.446Z,58.37
2022-08-03T05:03:56.409Z,57.39
2022-08-03T05:04:56.462Z,57.16
2022-08-03T05:06:09.412Z,57.72
2022-08-03T05:06:57.411Z,58.52
2022-08-03T05:07:56.390Z,57.97
2022-08-03T05:08:56.464Z,57.06
2022-08-03T05:10:01.333Z,58.05
2022-08-03T05:10:59.124Z,59.30
2022-08-03T05:11:56.375Z,57.25
2022-08-03T05:12:56.455Z,57.18
2022-08-03T05:13:56.438Z,56.83
2022-08-03T05:14:56.465Z,57.62
2022-08-03T05:15:56.498Z,57.97
2022-08-03T05:16:56.457Z,57.79
2022-08-03T05:17:56.448Z,57.98
2022-08-03T05:18:56.435Z,56.50
2022-08-03T05:19:56.421Z,58.38
2022-08-03T05:20:56.452Z,57.96
2022-08-03T05:21:56.372Z,57.90
2022-08-03T05:22:56.360Z,58.12
2022-08-03T05:23:56.346Z,57.81
2022-08-03T05:24:56.376Z,57.87
2022-08-03T05:25:56.401Z,56.95
2022-08-03T05:26:56.409Z,56.52
2022-08-03T05:27:56.323Z,56.78
2022-08-03T05:28:56.367Z,59.01
2022-08-03T05:29:56.317Z,59.64
2022-08-03T05:30:58.264Z,59.02
2022-08-03T05:31:56.345Z,56.63
2022-08-03T05:32:56.309Z,56.47
2022-08-03T05:33:56.348Z,57.41
2022-08-03T05:34:56.319Z,55.38
2022-08-03T05:36:02.769Z,56.20
2022-08-03T05:36:58.369Z,56.29
2022-08-03T05:37:56.277Z,56.67
2022-08-03T05:39:00.838Z,56.36
2022-08-03T05:39:58.296Z,55.96
2022-08-03T05:40:57.315Z,55.91
2022-08-03T05:41:56.313Z,58.59
2022-08-03T05:42:56.297Z,59.29
2022-08-03T05:43:56.304Z,58.47
2022-08-03T05:44:56.230Z,56.62
2022-08-03T05:46:12.472Z,58.22
2022-08-03T05:46:57.253Z,56.21
2022-08-03T05:47:56.289Z,56.21
2022-08-03T05:48:56.236Z,55.96
2022-08-03T05:49:56.221Z,57.51
2022-08-03T05:50:56.217Z,56.20
2022-08-03T05:52:07.969Z,59.36
2022-08-03T05:52:57.204Z,56.41
2022-08-03T05:53:56.171Z,56.23
2022-08-03T05:54:57.719Z,57.09
2022-08-03T05:55:59.310Z,56.01
2022-08-03T05:56:58.155Z,54.88
2022-08-03T05:57:56.833Z,55.58
2022-08-03T05:58:56.180Z,53.95
2022-08-03T05:59:58.542Z,55.40
2022-08-03T06:00:56.156Z,55.06
2022-08-03T06:01:56.177Z,55.15
2022-08-03T06:02:56.007Z,55.06
2022-08-03T06:03:56.021Z,56.06
2022-08-03T06:04:56.025Z,54.39
2022-08-03T06:06:00.313Z,57.89
2022-08-03T06:06:55.986Z,58.32
2022-08-03T06:07:55.993Z,57.28
2022-08-03T06:08:55.993Z,57.15
2022-08-03T06:10:34.927Z,57.01
2022-08-03T06:10:56.967Z,56.46
2022-08-03T06:11:55.920Z,57.54
2022-08-03T06:12:55.926Z,54.47
2022-08-03T06:13:55.942Z,55.67
2022-08-03T06:14:55.954Z,53.74
2022-08-03T06:15:56.071Z,54.89
2022-08-03T06:16:55.917Z,57.94
2022-08-03T06:17:58.738Z,53.60
2022-08-03T06:18:57.949Z,54.37
2022-08-03T06:19:55.919Z,56.58
2022-08-03T06:20:56.287Z,56.48
2022-08-03T06:21:55.854Z,52.68
2022-08-03T06:23:00.455Z,54.11
2022-08-03T06:23:56.848Z,53.15
2022-08-03T06:24:55.910Z,54.75
2022-08-03T06:25:55.918Z,53.48
2022-08-03T06:26:55.885Z,53.65
2022-08-03T06:27:55.896Z,53.59
2022-08-03T06:28:55.882Z,52.76
2022-08-03T06:29:55.890Z,51.67
2022-08-03T06:30:55.875Z,54.48
2022-08-03T06:31:55.881Z,53.23
2022-08-03T06:32:55.877Z,51.60
2022-08-03T06:34:34.225Z,55.12
2022-08-03T06:34:56.820Z,52.28
2022-08-03T06:35:55.855Z,54.39
2022-08-03T06:37:01.662Z,53.13
2022-08-03T06:37:57.786Z,55.07
2022-08-03T06:38:55.855Z,53.86
2022-08-03T06:39:55.879Z,52.78
2022-08-03T06:40:55.842Z,54.18
2022-08-03T06:41:55.858Z,56.15
2022-08-03T06:42:55.858Z,53.50
2022-08-03T06:44:03.259Z,52.74
2022-08-03T06:44:56.747Z,53.39
2022-08-03T06:45:55.786Z,54.98
2022-08-03T06:46:55.902Z,54.35
2022-08-03T06:47:55.744Z,52.94
2022-08-03T06:48:55.886Z,52.05
2022-08-03T06:50:12.822Z,52.95
2022-08-03T06:50:56.672Z,53.74
2022-08-03T06:52:04.118Z,50.74
2022-08-03T06:52:56.703Z,52.93
2022-08-03T06:53:55.734Z,52.60
2022-08-03T06:54:55.734Z,52.18
2022-08-03T06:55:55.751Z,52.04
2022-08-03T06:56:55.772Z,56.41
2022-08-03T06:57:55.733Z,54.33
2022-08-03T06:58:55.687Z,56.92
2022-08-03T07:00:08.022Z,55.69
2022-08-03T07:00:56.724Z,51.73
2022-08-03T07:01:55.745Z,53.01
2022-08-03T07:02:58.245Z,53.77
2022-08-03T07:03:56.729Z,53.26
2022-08-03T07:04:55.636Z,54.43
2022-08-03T07:05:55.668Z,51.88
2022-08-03T07:06:55.636Z,56.42
2022-08-03T07:07:55.642Z,51.95
2022-08-03T07:08:59.400Z,52.12
2022-08-03T07:09:58.175Z,53.94
2022-08-03T07:10:55.583Z,52.13
2022-08-03T07:11:55.620Z,53.65
2022-08-03T07:12:56.586Z,55.65
2022-08-03T07:13:55.599Z,51.75
2022-08-03T07:14:59.978Z,51.68
2022-08-03T07:15:57.636Z,52.79
2022-08-03T07:16:55.548Z,55.94
2022-08-03T07:17:55.473Z,54.59
2022-08-03T07:18:55.440Z,53.07
2022-08-03T07:19:55.498Z,53.25
2022-08-03T07:20:55.460Z,53.99
2022-08-03T07:21:55.471Z,54.01
2022-08-03T07:22:56.453Z,53.71
2022-08-03T07:23:55.420Z,54.54
2022-08-03T07:24:55.422Z,54.56
2022-08-03T07:25:55.696Z,59.37
2022-08-03T07:26:55.412Z,59.72
2022-08-03T07:27:55.399Z,53.58
2022-08-03T07:28:55.391Z,56.41
2022-08-03T07:29:55.517Z,54.13
2022-08-03T07:30:55.406Z,56.23
2022-08-03T07:31:55.365Z,58.23
2022-08-03T07:32:55.364Z,59.00
2022-08-03T07:33:55.406Z,54.98
2022-08-03T07:35:00.160Z,51.66
2022-08-03T07:35:57.408Z,55.01
2022-08-03T07:36:55.366Z,58.20
2022-08-03T07:37:55.434Z,53.85
2022-08-03T07:38:55.556Z,49.61
2022-08-03T07:39:55.394Z,52.23
2022-08-03T07:40:55.394Z,52.60
2022-08-03T07:41:55.479Z,56.60
2022-08-03T07:42:55.372Z,56.82
2022-08-03T07:43:55.407Z,53.40
2022-08-03T07:44:55.383Z,52.12
2022-08-03T07:45:55.378Z,54.71
2022-08-03T07:46:55.444Z,60.05
2022-08-03T07:47:55.422Z,50.23
2022-08-03T07:48:55.428Z,50.98
2022-08-03T07:49:55.435Z,52.89
2022-08-03T07:50:55.409Z,56.65
2022-08-03T07:51:55.373Z,58.56
2022-08-03T07:52:55.329Z,54.47
2022-08-03T07:53:55.380Z,50.36
2022-08-03T07:54:55.369Z,51.45
2022-08-03T07:55:55.383Z,53.72
2022-08-03T07:56:55.309Z,50.74
2022-08-03T07:57:55.674Z,51.83
2022-08-03T07:58:55.293Z,51.85
2022-08-03T08:00:01.790Z,51.21
2022-08-03T08:00:56.337Z,51.70
2022-08-03T08:01:55.282Z,55.27
2022-08-03T08:02:55.229Z,50.17
2022-08-03T08:03:55.286Z,51.72
2022-08-03T08:04:55.451Z,50.86
2022-08-03T08:05:55.256Z,52.14
2022-08-03T08:06:55.238Z,51.77
2022-08-03T08:07:55.258Z,50.52
2022-08-03T08:08:55.220Z,55.28
2022-08-03T08:09:55.201Z,53.21
2022-08-03T08:10:56.897Z,51.18
2022-08-03T11:07:06.862Z,49.96
2022-08-03T11:08:06.906Z,48.48
2022-08-03T11:09:06.895Z,53.39
2022-08-03T11:10:10.488Z,52.03
2022-08-03T11:11:07.905Z,52.84
2022-08-03T11:12:06.888Z,50.79
2022-08-03T11:13:06.801Z,48.34
2022-08-03T11:14:06.851Z,48.39
2022-08-03T11:15:06.985Z,50.28
2022-08-03T11:16:10.918Z,52.72
2022-08-03T11:17:14.084Z,51.48
2022-08-03T11:18:07.764Z,53.99
2022-08-03T11:19:06.766Z,49.52
2022-08-03T11:20:06.741Z,46.56
2022-08-03T11:21:06.789Z,48.65
2022-08-03T11:22:06.773Z,49.62
2022-08-03T11:23:06.725Z,48.27
2022-08-03T11:24:06.994Z,48.99
2022-08-03T11:25:07.769Z,48.01
2022-08-03T11:26:06.736Z,46.66
2022-08-03T11:27:06.731Z,47.93
2022-08-03T11:28:06.734Z,50.85
2022-08-03T11:29:06.714Z,51.91
2022-08-03T11:30:06.713Z,51.62
2022-08-03T11:31:06.758Z,52.46
2022-08-03T11:32:06.693Z,51.18
2022-08-03T11:33:06.779Z,50.05
2022-08-03T11:34:06.637Z,50.98
2022-08-03T11:35:06.713Z,59.81
2022-08-03T11:36:06.633Z,51.07
2022-08-03T11:37:06.640Z,52.01
2022-08-03T11:38:06.695Z,52.72
2022-08-03T11:39:06.607Z,55.97
2022-08-03T11:40:06.618Z,51.35
2022-08-03T11:41:06.581Z,49.12
2022-08-03T11:42:06.580Z,47.36
2022-08-03T11:43:06.612Z,50.78
2022-08-03T11:44:06.670Z,51.61
2022-08-03T11:45:06.562Z,44.94
2022-08-03T11:46:06.631Z,48.75
2022-08-03T11:47:06.571Z,47.42
2022-08-03T11:48:06.547Z,56.30
2022-08-03T11:49:10.403Z,49.83
2022-08-03T11:50:07.547Z,53.53
2022-08-03T11:51:06.523Z,51.56
2022-08-03T11:52:06.559Z,52.57
2022-08-03T11:53:06.527Z,54.14
2022-08-03T11:54:06.491Z,56.23
2022-08-03T11:55:06.478Z,50.63
2022-08-03T11:56:06.448Z,50.92
2022-08-03T11:57:07.423Z,52.37
2022-08-03T11:59:17.274Z,51.09
2022-08-03T11:59:19.974Z,50.52
2022-08-03T12:00:07.395Z,51.22
2022-08-03T12:01:06.403Z,49.50
2022-08-03T12:02:06.342Z,50.78
2022-08-03T12:03:06.438Z,52.32
2022-08-03T12:04:06.358Z,52.17
2022-08-03T12:05:06.373Z,52.02
2022-08-03T12:06:06.714Z,49.62
2022-08-03T12:07:06.347Z,50.48
2022-08-03T12:08:06.873Z,49.14
2022-08-03T12:09:07.425Z,48.45
2022-08-03T12:10:06.326Z,50.60
2022-08-03T12:11:06.441Z,50.75
2022-08-03T12:12:06.445Z,49.71
2022-08-03T12:14:32.970Z,46.11
2022-08-03T12:14:49.050Z,48.39
2022-08-03T12:15:07.300Z,51.12
2022-08-03T12:16:06.381Z,49.61
2022-08-03T12:17:06.456Z,49.52
2022-08-03T12:18:07.291Z,51.42
2022-08-03T12:19:06.379Z,50.80
2022-08-03T12:20:06.362Z,49.04
2022-08-03T12:21:06.414Z,51.65
2022-08-03T12:22:06.367Z,50.44
2022-08-03T12:23:06.329Z,50.82
2022-08-03T12:24:06.292Z,49.68
2022-08-03T12:25:06.356Z,49.99
2022-08-03T12:26:06.292Z,52.72
2022-08-03T12:27:06.319Z,49.55
2022-08-03T12:28:06.324Z,49.95
2022-08-03T12:29:07.187Z,49.57
2022-08-03T12:30:06.298Z,52.02
2022-08-03T12:31:06.258Z,50.48
2022-08-03T12:32:06.284Z,50.28
2022-08-03T12:33:06.317Z,50.96
2022-08-03T12:34:06.245Z,47.43
2022-08-03T12:35:06.254Z,47.82
2022-08-03T12:36:07.246Z,49.26
2022-08-03T12:37:21.897Z,48.34
2022-08-03T12:38:07.237Z,49.61
2022-08-03T12:39:06.243Z,50.35
2022-08-03T12:40:10.186Z,47.95
2022-08-03T12:41:08.224Z,60.27
2022-08-03T12:42:06.213Z,56.13
2022-08-03T12:43:06.198Z,52.64
2022-08-03T12:44:06.300Z,49.11
2022-08-03T12:45:06.166Z,53.44
2022-08-03T12:46:06.182Z,53.17
2022-08-03T12:47:06.171Z,51.46
2022-08-03T12:48:06.136Z,50.31
2022-08-03T12:49:06.252Z,53.37
2022-08-03T12:50:06.172Z,48.91
2022-08-03T12:51:06.120Z,50.67
2022-08-03T12:52:07.720Z,49.60
2022-08-03T12:53:09.038Z,52.66
2022-08-03T12:54:06.116Z,49.30
2022-08-03T12:55:06.174Z,50.98
2022-08-03T12:56:06.388Z,51.77
2022-08-03T12:57:05.978Z,53.44
2022-08-03T12:58:06.008Z,52.62
2022-08-03T12:59:05.977Z,52.32
2022-08-03T13:00:06.065Z,52.02
2022-08-03T13:01:09.526Z,52.19
2022-08-03T13:02:09.618Z,51.46
2022-08-03T13:03:38.226Z,51.03
2022-08-03T13:04:07.989Z,51.72
2022-08-03T13:05:05.945Z,50.96
2022-08-03T13:06:06.036Z,53.07
2022-08-03T13:07:06.532Z,49.94
2022-08-03T13:08:06.948Z,51.56
2022-08-03T13:09:05.903Z,47.35
2022-08-03T13:10:08.146Z,47.76
2022-08-03T13:11:07.005Z,50.52
2022-08-03T13:12:05.911Z,51.83
2022-08-03T13:13:05.913Z,51.33
2022-08-03T13:14:05.978Z,50.32
2022-08-03T13:15:05.988Z,49.79
2022-08-03T13:16:06.006Z,50.58
2022-08-03T13:17:05.978Z,50.21
2022-08-03T13:18:06.001Z,49.17
2022-08-03T13:19:05.951Z,51.87
2022-08-03T13:20:06.934Z,49.50
2022-08-03T13:21:06.032Z,47.75
2022-08-03T13:22:06.025Z,47.51
2022-08-03T13:23:06.051Z,50.04
2022-08-03T13:24:06.889Z,49.53
2022-08-03T13:25:05.955Z,49.41
2022-08-03T13:26:05.979Z,46.87
2022-08-03T13:28:02.149Z,48.47
2022-08-03T13:28:09.944Z,45.96
2022-08-03T13:29:07.956Z,49.14
2022-08-03T13:30:05.957Z,50.08
2022-08-03T13:31:05.981Z,49.70
2022-08-03T13:32:05.992Z,49.23
2022-08-03T13:33:06.065Z,50.05
2022-08-03T13:34:05.944Z,55.21
2022-08-03T13:35:06.013Z,52.70
2022-08-03T13:36:05.850Z,46.84
2022-08-03T13:37:09.444Z,43.53
2022-08-03T13:38:07.870Z,46.86
2022-08-03T13:39:05.870Z,44.59
2022-08-03T13:40:05.975Z,47.26
2022-08-03T13:41:05.854Z,48.43
2022-08-03T13:42:06.790Z,45.81
2022-08-03T13:43:05.912Z,49.24
2022-08-03T13:44:26.607Z,47.08
2022-08-03T13:45:07.839Z,46.43
2022-08-03T13:46:05.824Z,50.20
2022-08-03T13:47:05.850Z,50.73
2022-08-03T13:48:06.885Z,49.40
2022-08-03T13:49:05.731Z,49.29
2022-08-03T13:50:05.792Z,52.83
2022-08-03T13:51:21.682Z,51.05
2022-08-03T13:52:07.689Z,47.50
2022-08-03T13:53:05.749Z,50.89
2022-08-03T13:54:05.787Z,49.32
2022-08-03T13:55:05.821Z,50.63
2022-08-03T13:56:05.674Z,49.07
2022-08-03T13:58:07.557Z,48.16
2022-08-03T13:58:18.927Z,48.22
2022-08-03T13:59:06.731Z,46.89
2022-08-03T14:00:05.676Z,45.63
2022-08-03T14:01:05.765Z,43.30
2022-08-03T14:02:05.844Z,47.70
2022-08-03T14:03:14.512Z,44.72
2022-08-03T14:04:06.693Z,46.93
2022-08-03T14:05:06.650Z,44.73
2022-08-03T14:06:05.703Z,45.58
2022-08-03T14:07:05.751Z,44.60
2022-08-03T14:08:05.882Z,41.51
2022-08-03T14:09:05.602Z,44.34
2022-08-03T14:10:05.629Z,44.33
2022-08-03T14:11:05.670Z,44.42
2022-08-03T14:12:08.720Z,44.25
2022-08-03T14:13:05.686Z,44.54
2022-08-03T14:14:05.649Z,45.37
2022-08-03T14:15:05.962Z,45.22
2022-08-03T14:16:05.652Z,41.08
2022-08-03T14:17:05.699Z,47.44
2022-08-03T14:18:05.649Z,44.21
2022-08-03T14:19:05.617Z,47.24
2022-08-03T14:20:13.868Z,47.99
2022-08-03T14:21:07.420Z,49.17
2022-08-03T14:22:07.010Z,50.14
2022-08-03T14:23:05.635Z,51.86
2022-08-03T14:24:05.626Z,50.97
2022-08-03T14:25:05.590Z,49.26
2022-08-03T14:26:05.634Z,50.68
2022-08-03T14:27:09.338Z,49.90
2022-08-03T14:28:06.550Z,47.98
2022-08-03T14:29:05.691Z,46.96
2022-08-03T14:30:05.514Z,47.95
2022-08-03T14:31:08.223Z,51.34
2022-08-03T14:32:11.315Z,52.92
2022-08-03T14:33:06.552Z,53.30
2022-08-03T14:34:05.515Z,51.22
2022-08-03T14:35:06.593Z,51.37
2022-08-03T14:36:05.503Z,51.79
2022-08-03T14:37:05.576Z,51.67
2022-08-03T14:38:05.478Z,51.43
2022-08-03T14:39:05.511Z,50.99
2022-08-03T14:40:05.578Z,52.59
2022-08-03T14:41:05.463Z,47.69
2022-08-03T14:42:05.401Z,50.01
2022-08-03T14:43:05.389Z,50.61
2022-08-03T14:44:05.378Z,51.35
2022-08-03T14:45:09.328Z,48.64
2022-08-03T14:46:06.454Z,50.49
2022-08-03T14:47:05.522Z,50.27
2022-08-03T14:50:32.222Z,52.80
2022-08-03T14:50:33.340Z,51.66
2022-08-03T14:50:36.511Z,56.56
2022-08-03T14:51:06.333Z,53.41
2022-08-03T14:52:05.464Z,49.66
2022-08-03T14:53:05.471Z,52.77
2022-08-03T14:54:05.491Z,53.69
2022-08-03T14:55:05.412Z,49.99
2022-08-03T14:56:10.056Z,47.86
2022-08-03T14:57:07.586Z,47.10
2022-08-03T14:58:05.613Z,50.51
2022-08-03T14:59:06.364Z,49.64
2022-08-03T15:00:05.566Z,48.95
2022-08-03T15:02:04.973Z,47.29
2022-08-03T15:02:11.020Z,50.31
2022-08-03T15:03:06.560Z,49.56
2022-08-03T15:04:05.408Z,50.41
2022-08-03T15:05:05.451Z,50.92
2022-08-03T15:06:05.455Z,49.87
2022-08-03T15:07:05.345Z,48.91
2022-08-03T15:08:09.102Z,50.10
2022-08-03T15:09:21.484Z,47.89
2022-08-03T15:10:07.283Z,44.85
2022-08-03T15:11:05.290Z,49.65
2022-08-03T15:12:05.424Z,45.12
2022-08-03T15:13:05.291Z,43.81
2022-08-03T15:14:09.137Z,45.45
2022-08-03T15:15:06.341Z,46.17
2022-08-03T15:16:05.370Z,47.09
2022-08-03T15:17:05.298Z,46.27
2022-08-03T15:18:05.311Z,48.06
2022-08-03T15:20:01.365Z,45.60
2022-08-03T15:20:23.328Z,45.59
2022-08-03T15:21:07.239Z,46.64
2022-08-03T15:22:06.183Z,49.99
2022-08-03T15:23:05.219Z,48.74
2022-08-03T15:24:05.280Z,45.86
2022-08-03T15:26:29.292Z,45.92
2022-08-03T15:26:30.811Z,47.88
2022-08-03T15:27:06.553Z,46.64
2022-08-03T15:28:05.208Z,56.07
2022-08-03T15:29:05.340Z,56.72
2022-08-03T15:30:09.903Z,55.96
2022-08-03T15:31:06.184Z,50.57
2022-08-03T15:32:09.169Z,53.87
2022-08-03T15:33:06.382Z,52.45
2022-08-03T15:34:05.254Z,41.64
2022-08-03T15:35:05.278Z,43.77
2022-08-03T15:36:05.284Z,41.91
2022-08-03T15:37:05.247Z,43.09
2022-08-03T15:38:09.496Z,41.42
2022-08-03T15:39:06.361Z,43.28
2022-08-03T15:40:05.244Z,41.75
2022-08-03T15:41:05.223Z,45.05
2022-08-03T15:42:05.119Z,44.57
2022-08-03T15:43:05.176Z,44.68
2022-08-03T15:44:09.100Z,48.02
2022-08-03T15:45:06.171Z,49.07
2022-08-03T15:46:29.247Z,48.82
2022-08-03T15:47:07.134Z,48.48
2022-08-03T15:48:05.189Z,46.63